createdAt,value
2019-03-28T00:01:24.703Z,13.25
2019-03-28T00:03:58.370Z,15.21
2019-03-28T00:06:32.315Z,18.28
2019-03-28T00:09:08.154Z,17.27
2019-03-28T00:11:41.891Z,15.77
2019-03-28T00:14:15.617Z,14.73
2019-03-28T00:16:49.363Z,13.97
2019-03-28T00:19:22.974Z,13.36
2019-03-28T00:21:56.659Z,14.18
2019-03-28T00:24:44.347Z,17.76
2019-03-28T00:27:19.011Z,17.06
2019-03-28T00:29:52.658Z,15.62
2019-03-28T00:32:26.584Z,14.58
2019-03-28T00:35:00.691Z,13.77
2019-03-28T00:37:35.232Z,13.21
2019-03-28T00:40:09.618Z,15.50
2019-03-28T00:42:43.297Z,17.77
2019-03-28T00:45:17.129Z,16.41
2019-03-28T00:47:50.778Z,15.08
2019-03-28T00:50:24.482Z,14.13
2019-03-28T00:52:58.215Z,13.43
2019-03-28T00:55:32.934Z,12.95
2019-03-28T00:58:06.563Z,15.60
2019-03-28T01:00:40.615Z,17.76
2019-03-28T01:03:14.300Z,16.36
2019-03-28T01:05:47.933Z,15.05
2019-03-28T01:08:21.542Z,14.13
2019-03-28T01:10:56.177Z,13.43
2019-03-28T01:13:29.877Z,13.19
2019-03-28T01:16:03.501Z,16.42
2019-03-28T01:18:37.187Z,16.90
2019-03-28T01:21:10.807Z,15.50
2019-03-28T01:23:44.420Z,14.40
2019-03-28T01:26:18.368Z,13.58
2019-03-28T01:28:52.112Z,13.02
2019-03-28T01:31:25.721Z,14.97
2019-03-28T01:33:59.330Z,17.83
2019-03-28T01:36:32.901Z,16.73
2019-03-28T01:39:07.642Z,15.38
2019-03-28T01:41:41.323Z,14.33
2019-03-28T01:44:14.857Z,13.61
2019-03-28T01:46:48.509Z,13.07
2019-03-28T01:49:22.089Z,15.04
2019-03-28T01:51:56.183Z,18.18
2019-03-28T01:54:29.871Z,17.11
2019-03-28T01:57:10.737Z,15.63
2019-03-28T01:59:38.781Z,14.55
2019-03-28T02:02:12.460Z,13.81
2019-03-28T02:04:46.114Z,13.21
2019-03-28T02:07:19.722Z,13.95
2019-03-28T02:09:53.335Z,17.38
2019-03-28T02:12:27.001Z,17.04
2019-03-28T02:15:00.652Z,15.59
2019-03-28T02:17:34.371Z,14.50
2019-03-28T02:20:08.587Z,13.74
2019-03-28T02:22:42.285Z,13.18
2019-03-28T02:25:15.993Z,15.31
2019-03-28T02:27:49.744Z,17.70
2019-03-28T02:30:33.894Z,16.41
2019-03-28T02:33:07.638Z,15.02
2019-03-28T02:35:41.312Z,14.15
2019-03-28T02:38:14.901Z,13.46
2019-03-28T02:40:48.601Z,13.39
2019-03-28T02:43:22.335Z,16.72
2019-03-28T02:45:56.848Z,17.10
2019-03-28T02:48:30.494Z,15.62
2019-03-28T02:51:04.208Z,14.53
2019-03-28T02:53:37.858Z,13.74
2019-03-28T02:56:11.572Z,13.16
2019-03-28T02:58:45.214Z,15.74
2019-03-28T03:01:18.865Z,17.52
2019-03-28T03:03:52.495Z,16.13
2019-03-28T03:06:26.186Z,14.84
2019-03-28T03:08:59.912Z,13.97
2019-03-28T03:11:33.557Z,13.30
2019-03-28T03:14:07.536Z,12.88
2019-03-28T03:16:41.119Z,15.69
2019-03-28T03:19:15.394Z,17.29
2019-03-28T03:21:49.097Z,15.95
2019-03-28T03:24:22.752Z,14.69
2019-03-28T03:26:56.335Z,13.80
2019-03-28T03:29:29.849Z,13.16
2019-03-28T03:32:03.664Z,12.67
2019-03-28T03:34:37.379Z,15.01
2019-03-28T03:37:11.116Z,18.05
2019-03-28T03:39:44.826Z,17.04
2019-03-28T03:42:18.470Z,15.56
2019-03-28T03:44:52.056Z,14.49
2019-03-28T03:47:25.706Z,13.76
2019-03-28T03:49:59.308Z,13.16
2019-03-28T03:52:32.932Z,13.70
2019-03-28T03:55:07.046Z,17.25
2019-03-28T03:57:40.680Z,17.28
2019-03-28T04:00:17.306Z,15.76
2019-03-28T04:02:50.920Z,14.58
2019-03-28T04:05:24.580Z,13.83
2019-03-28T04:07:58.233Z,13.26
2019-03-28T04:10:32.035Z,12.80
2019-03-28T04:13:05.859Z,14.94
2019-03-28T04:15:39.738Z,18.04
2019-03-28T04:18:13.931Z,17.25
2019-03-28T04:20:48.963Z,15.74
2019-03-28T04:23:22.665Z,14.77
2019-03-28T04:25:56.416Z,13.94
2019-03-28T04:28:32.329Z,13.39
2019-03-28T04:31:05.450Z,12.94
2019-03-28T04:33:39.110Z,15.07
2019-03-28T04:36:12.778Z,18.20
2019-03-28T04:38:46.422Z,17.24
2019-03-28T04:41:20.191Z,15.80
2019-03-28T04:43:55.950Z,14.76
2019-03-28T04:46:29.258Z,14.02
2019-03-28T04:49:04.019Z,13.45
2019-03-28T04:51:37.755Z,12.97
2019-03-28T04:54:11.500Z,15.38
2019-03-28T04:56:45.338Z,18.35
2019-03-28T04:59:19.308Z,17.22
2019-03-28T05:02:02.617Z,15.77
2019-03-28T05:04:28.623Z,14.74
2019-03-28T05:07:02.340Z,14.00
2019-03-28T05:09:36.034Z,13.43
2019-03-28T05:12:09.649Z,13.11
2019-03-28T05:14:43.331Z,16.32
2019-03-28T05:17:17.004Z,17.28
2019-03-28T05:19:50.676Z,15.86
2019-03-28T05:22:24.293Z,14.71
2019-03-28T05:24:58.611Z,13.93
2019-03-28T05:27:33.514Z,13.35
2019-03-28T05:30:08.630Z,12.89
2019-03-28T05:32:42.296Z,15.34
2019-03-28T05:35:16.006Z,18.56
2019-03-28T05:37:49.652Z,17.59
2019-03-28T05:40:23.416Z,16.08
2019-03-28T05:42:57.171Z,15.02
2019-03-28T05:45:30.819Z,14.26
2019-03-28T05:48:04.529Z,13.72
2019-03-28T05:50:39.498Z,13.26
2019-03-28T05:53:13.507Z,12.89
2019-03-28T05:55:47.960Z,15.21
2019-03-28T05:58:21.585Z,18.27
2019-03-28T06:00:55.246Z,17.24
2019-03-28T06:03:28.830Z,15.83
2019-03-28T06:06:02.545Z,14.84
2019-03-28T06:08:36.184Z,14.19
2019-03-28T06:11:09.795Z,13.67
2019-03-28T06:13:43.409Z,13.29
2019-03-28T06:16:16.990Z,15.49
2019-03-28T06:18:50.601Z,18.24
2019-03-28T06:21:24.248Z,17.19
2019-03-28T06:23:57.861Z,15.86
2019-03-28T06:26:31.427Z,14.90
2019-03-28T06:29:05.071Z,14.28
2019-03-28T06:31:38.670Z,13.78
2019-03-28T06:34:12.346Z,13.40
2019-03-28T06:36:45.978Z,14.12
2019-03-28T06:39:19.676Z,17.85
2019-03-28T06:41:53.333Z,18.01
2019-03-28T06:44:27.000Z,16.52
2019-03-28T06:47:00.596Z,15.42
2019-03-28T06:49:34.175Z,14.70
2019-03-28T06:52:07.811Z,14.15
2019-03-28T06:54:42.505Z,13.73
2019-03-28T06:57:18.832Z,13.40
2019-03-28T06:59:51.500Z,16.13
2019-03-28T07:02:25.197Z,18.90
2019-03-28T07:04:58.823Z,17.64
2019-03-28T07:07:33.574Z,16.35
2019-03-28T07:10:07.609Z,15.38
2019-03-28T07:12:41.340Z,14.67
2019-03-28T07:15:15.621Z,14.18
2019-03-28T07:17:49.359Z,13.74
2019-03-28T07:20:23.094Z,13.39
2019-03-28T07:22:57.758Z,15.76
2019-03-28T07:25:31.434Z,18.34
2019-03-28T07:28:06.551Z,17.17
2019-03-28T07:30:40.489Z,15.88
2019-03-28T07:33:14.151Z,15.01
2019-03-28T07:35:47.745Z,14.39
2019-03-28T07:38:21.501Z,13.90
2019-03-28T07:40:55.176Z,13.54
2019-03-28T07:43:28.795Z,15.76
2019-03-28T07:46:02.525Z,17.64
2019-03-28T07:48:36.225Z,16.27
2019-03-28T07:51:09.839Z,15.28
2019-03-28T07:53:44.688Z,14.59
2019-03-28T07:56:18.318Z,14.04
2019-03-28T07:58:52.011Z,13.67
2019-03-28T08:01:25.738Z,13.36
2019-03-28T08:03:59.391Z,15.70
2019-03-28T08:06:33.104Z,18.10
2019-03-28T08:09:09.981Z,17.24
2019-03-28T08:11:43.632Z,16.11
2019-03-28T08:14:17.317Z,15.35
2019-03-28T08:16:51.066Z,14.84
2019-03-28T08:19:24.763Z,14.43
2019-03-28T08:21:58.541Z,14.16
2019-03-28T08:24:32.209Z,13.90
2019-03-28T08:27:05.848Z,13.73
2019-03-28T08:29:39.457Z,13.66
2019-03-28T08:32:16.456Z,13.61
2019-03-28T08:34:50.455Z,13.63
2019-03-28T08:37:24.409Z,16.29
2019-03-28T08:39:58.100Z,17.35
2019-03-28T08:42:31.807Z,16.58
2019-03-28T08:45:07.411Z,15.88
2019-03-28T08:47:41.110Z,15.36
2019-03-28T08:50:15.091Z,14.97
2019-03-28T08:52:48.679Z,14.67
2019-03-28T08:55:22.417Z,14.39
2019-03-28T08:57:56.392Z,14.15
2019-03-28T09:00:35.292Z,14.00
2019-03-28T09:03:05.964Z,13.94
2019-03-28T09:05:39.680Z,14.00
2019-03-28T09:08:13.318Z,14.00
2019-03-28T09:10:47.050Z,13.95
2019-03-28T09:13:20.839Z,13.84
2019-03-28T09:15:54.632Z,13.74
2019-03-28T09:18:28.326Z,13.61
2019-03-28T09:21:01.927Z,13.53
2019-03-28T09:23:35.584Z,13.40
2019-03-28T09:26:09.210Z,13.35
2019-03-28T09:28:42.901Z,13.33
2019-03-28T09:31:20.126Z,13.46
2019-03-28T09:33:52.968Z,13.73
2019-03-28T09:36:27.669Z,14.09
2019-03-28T09:39:01.304Z,14.46
2019-03-28T09:41:36.837Z,14.79
2019-03-28T09:44:10.513Z,14.91
2019-03-28T09:46:45.229Z,14.95
2019-03-28T09:49:18.865Z,14.86
2019-03-28T09:51:52.442Z,14.76
2019-03-28T09:54:26.096Z,14.62
2019-03-28T09:56:59.800Z,14.46
2019-03-28T09:59:33.454Z,14.33
2019-03-28T10:02:07.080Z,14.16
2019-03-28T10:04:40.822Z,14.04
2019-03-28T10:07:14.694Z,13.90
2019-03-28T10:09:48.862Z,13.81
2019-03-28T10:12:22.664Z,13.70
2019-03-28T10:14:56.294Z,13.61
2019-03-28T10:17:29.985Z,13.50
2019-03-28T10:20:05.644Z,13.43
2019-03-28T10:22:39.148Z,13.35
2019-03-28T10:25:14.462Z,13.28
2019-03-28T10:27:48.393Z,13.29
2019-03-28T10:30:43.526Z,13.25
2019-03-28T10:33:17.223Z,13.23
2019-03-28T10:35:50.920Z,13.22
2019-03-28T10:38:24.472Z,13.19
2019-03-28T10:40:58.241Z,13.12
2019-03-28T10:43:31.944Z,13.05
2019-03-28T10:46:05.718Z,13.04
2019-03-28T10:48:39.385Z,12.98
2019-03-28T10:51:13.095Z,12.94
2019-03-28T10:53:46.769Z,12.91
2019-03-28T10:56:22.214Z,12.88
2019-03-28T10:58:56.378Z,12.87
2019-03-28T11:01:47.029Z,12.88
2019-03-28T11:04:05.702Z,12.91
2019-03-28T11:06:39.410Z,12.92
2019-03-28T11:09:13.190Z,12.92
2019-03-28T11:11:46.964Z,12.91
2019-03-28T11:14:20.635Z,12.91
2019-03-28T11:16:54.234Z,12.92
2019-03-28T11:19:27.990Z,12.94
2019-03-28T11:22:01.678Z,12.94
2019-03-28T11:24:36.423Z,12.92
2019-03-28T11:27:09.994Z,12.95
2019-03-28T11:29:43.710Z,12.94
2019-03-28T11:32:18.646Z,12.95
2019-03-28T11:34:54.008Z,12.97
2019-03-28T11:37:28.376Z,12.99
2019-03-28T11:40:02.368Z,13.02
2019-03-28T11:42:37.509Z,13.05
2019-03-28T11:45:13.898Z,13.07
2019-03-28T11:47:47.637Z,13.09
2019-03-28T11:50:21.377Z,13.12
2019-03-28T11:52:54.992Z,13.19
2019-03-28T11:55:28.676Z,13.21
2019-03-28T11:58:03.477Z,13.23
2019-03-28T12:00:37.128Z,13.26
2019-03-28T12:03:10.759Z,13.26
2019-03-28T12:05:44.402Z,13.32
2019-03-28T12:08:18.123Z,13.30
2019-03-28T12:10:51.709Z,13.30
2019-03-28T12:13:25.355Z,13.32
2019-03-28T12:15:59.015Z,13.33
2019-03-28T12:18:32.710Z,13.35
2019-03-28T12:21:06.324Z,13.35
2019-03-28T12:23:39.956Z,13.33
2019-03-28T12:26:13.580Z,13.32
2019-03-28T12:28:47.309Z,13.32
2019-03-28T12:31:20.952Z,13.29
2019-03-28T12:33:54.610Z,13.28
2019-03-28T12:36:28.286Z,13.25
2019-03-28T12:39:01.893Z,13.22
2019-03-28T12:41:37.100Z,13.19
2019-03-28T12:44:10.806Z,13.18
2019-03-28T12:46:44.574Z,13.15
2019-03-28T12:49:18.392Z,13.09
2019-03-28T12:51:54.208Z,13.09
2019-03-28T12:54:28.526Z,13.08
2019-03-28T12:57:03.369Z,13.07
2019-03-28T12:59:37.073Z,13.05
2019-03-28T13:02:10.778Z,13.05
2019-03-28T13:04:45.690Z,13.02
2019-03-28T13:07:19.366Z,13.02
2019-03-28T13:09:53.042Z,13.04
2019-03-28T13:12:26.613Z,13.07
2019-03-28T13:15:00.436Z,13.05
2019-03-28T13:17:34.372Z,13.05
2019-03-28T13:20:10.179Z,13.09
2019-03-28T13:22:43.859Z,13.07
2019-03-28T13:25:18.758Z,13.09
2019-03-28T13:27:56.016Z,13.08
2019-03-28T13:30:29.712Z,13.11
2019-03-28T13:33:04.054Z,13.08
2019-03-28T13:35:39.488Z,13.11
2019-03-28T13:38:13.087Z,13.12
2019-03-28T13:40:46.779Z,13.15
2019-03-28T13:43:20.346Z,13.18
2019-03-28T13:45:54.010Z,13.21
2019-03-28T13:48:27.682Z,13.22
2019-03-28T13:51:02.220Z,13.22
2019-03-28T13:53:39.754Z,13.22
2019-03-28T13:56:11.268Z,13.23
2019-03-28T13:58:44.956Z,13.22
2019-03-28T14:01:18.585Z,13.22
2019-03-28T14:03:52.386Z,13.25
2019-03-28T14:06:25.956Z,13.28
2019-03-28T14:09:00.066Z,13.29
2019-03-28T14:11:35.398Z,13.33
2019-03-28T14:14:09.102Z,13.37
2019-03-28T14:16:42.892Z,13.40
2019-03-28T14:19:16.894Z,13.43
2019-03-28T14:21:50.640Z,13.42
2019-03-28T14:24:24.223Z,13.45
2019-03-28T14:26:58.069Z,13.45
2019-03-28T14:29:31.798Z,13.43
2019-03-28T14:32:05.717Z,13.42
2019-03-28T14:34:39.915Z,13.40
2019-03-28T14:37:16.961Z,13.36
2019-03-28T14:39:50.044Z,13.32
2019-03-28T14:42:23.999Z,13.32
2019-03-28T14:44:57.584Z,13.25
2019-03-28T14:47:32.495Z,13.22
2019-03-28T14:50:07.203Z,13.19
2019-03-28T14:52:41.375Z,13.16
2019-03-28T14:55:15.105Z,13.15
2019-03-28T14:57:49.375Z,13.11
2019-03-28T15:00:53.465Z,13.09
2019-03-28T15:03:27.720Z,13.05
2019-03-28T15:06:01.772Z,13.02
2019-03-28T15:08:35.455Z,12.99
2019-03-28T15:11:09.256Z,12.95
2019-03-28T15:13:43.148Z,12.97
2019-03-28T15:16:16.921Z,12.92
2019-03-28T15:18:50.593Z,12.88
2019-03-28T15:21:24.317Z,12.87
2019-03-28T15:23:58.009Z,12.85
2019-03-28T15:26:31.863Z,12.84
2019-03-28T15:29:05.700Z,12.81
2019-03-28T15:31:39.471Z,12.82
2019-03-28T15:34:13.300Z,12.81
2019-03-28T15:36:48.357Z,12.80
2019-03-28T15:39:22.397Z,12.78
2019-03-28T15:41:56.280Z,12.77
2019-03-28T15:44:29.897Z,12.77
2019-03-28T15:47:03.742Z,12.74
2019-03-28T15:49:37.538Z,12.74
2019-03-28T15:52:11.683Z,12.71
2019-03-28T15:54:45.720Z,12.70
2019-03-28T15:57:19.745Z,12.70
2019-03-28T15:59:53.950Z,12.68
2019-03-28T16:02:27.703Z,12.66
2019-03-28T16:05:03.332Z,12.66
2019-03-28T16:07:37.347Z,12.64
2019-03-28T16:10:14.954Z,12.64
2019-03-28T16:12:49.657Z,12.63
2019-03-28T16:15:23.461Z,12.61
2019-03-28T16:17:57.835Z,12.57
2019-03-28T16:20:45.226Z,12.59
2019-03-28T16:23:15.065Z,12.56
2019-03-28T16:25:50.615Z,12.56
2019-03-28T16:28:28.084Z,12.54
2019-03-28T16:31:04.449Z,12.51
2019-03-28T16:33:38.165Z,12.49
2019-03-28T16:36:29.857Z,12.47
2019-03-28T16:39:03.718Z,12.44
2019-03-28T16:41:39.025Z,12.43
2019-03-28T16:44:13.839Z,12.36
2019-03-28T16:46:47.545Z,12.32
2019-03-28T16:49:23.501Z,12.29
2019-03-28T16:51:57.472Z,12.21
2019-03-28T16:54:31.262Z,12.19
2019-03-28T16:57:05.466Z,12.15
2019-03-28T16:59:39.220Z,12.09
2019-03-28T17:02:13.099Z,12.01
2019-03-28T17:04:48.019Z,11.98
2019-03-28T17:07:21.920Z,11.94
2019-03-28T17:09:55.856Z,11.86
2019-03-28T17:12:29.660Z,11.80
2019-03-28T17:15:03.577Z,11.75
2019-03-28T17:17:38.474Z,11.70
2019-03-28T17:20:12.574Z,11.61
2019-03-28T17:22:46.322Z,11.56
2019-03-28T17:25:20.067Z,11.53
2019-03-28T17:27:53.977Z,11.46
2019-03-28T17:30:27.839Z,11.42
2019-03-28T17:33:01.636Z,11.36
2019-03-28T17:35:35.579Z,11.29
2019-03-28T17:38:09.276Z,11.26
2019-03-28T17:40:43.014Z,11.20
2019-03-28T17:43:17.014Z,11.19
2019-03-28T17:45:51.929Z,11.15
2019-03-28T17:48:28.365Z,11.10
2019-03-28T17:51:01.452Z,11.06
2019-03-28T17:53:35.316Z,11.00
2019-03-28T17:56:09.070Z,10.96
2019-03-28T17:58:45.021Z,10.95
2019-03-28T18:01:19.027Z,10.89
2019-03-28T18:03:52.899Z,10.85
2019-03-28T18:06:26.622Z,10.84
2019-03-28T18:09:00.606Z,10.82
2019-03-28T18:11:39.104Z,10.78
2019-03-28T18:14:12.894Z,10.78
2019-03-28T18:16:46.632Z,10.74
2019-03-28T18:19:23.851Z,10.71
2019-03-28T18:22:03.957Z,10.70
2019-03-28T18:24:42.457Z,10.63
2019-03-28T18:27:18.832Z,10.63
2019-03-28T18:29:53.697Z,10.58
2019-03-28T18:32:27.587Z,10.57
2019-03-28T18:35:05.583Z,10.54
2019-03-28T18:37:36.890Z,10.50
2019-03-28T18:40:11.914Z,10.45
2019-03-28T18:42:45.653Z,10.44
2019-03-28T18:45:19.502Z,10.40
2019-03-28T18:47:53.294Z,10.33
2019-03-28T18:50:27.076Z,10.30
2019-03-28T18:53:00.842Z,10.24
2019-03-28T18:55:35.993Z,10.17
2019-03-28T18:58:09.684Z,10.13
2019-03-28T19:00:43.436Z,10.09
2019-03-28T19:03:17.152Z,10.05
2019-03-28T19:05:50.854Z,9.99
2019-03-28T19:08:24.498Z,9.93
2019-03-28T19:10:58.297Z,11.91
2019-03-28T19:13:31.987Z,15.72
2019-03-28T19:16:05.916Z,16.05
2019-03-28T19:18:39.624Z,14.70
2019-03-28T19:21:13.541Z,13.72
2019-03-28T19:23:47.350Z,13.14
2019-03-28T19:26:21.114Z,12.70
2019-03-28T19:28:56.130Z,12.41
2019-03-28T19:31:30.664Z,12.15
2019-03-28T19:34:22.068Z,11.88
2019-03-28T19:36:56.382Z,11.67
2019-03-28T19:39:33.466Z,11.49
2019-03-28T19:42:12.336Z,11.33
2019-03-28T19:44:47.781Z,11.13
2019-03-28T19:47:21.472Z,10.99
2019-03-28T19:49:55.199Z,10.87
2019-03-28T19:52:28.804Z,10.71
2019-03-28T19:55:02.538Z,10.60
2019-03-28T19:57:36.531Z,10.47
2019-03-28T20:00:11.014Z,10.33
2019-03-28T20:02:44.922Z,10.24
2019-03-28T20:05:18.732Z,10.16
2019-03-28T20:07:52.591Z,10.02
2019-03-28T20:10:26.563Z,9.93
2019-03-28T20:13:00.468Z,9.84
2019-03-28T20:15:34.268Z,9.72
2019-03-28T20:18:08.274Z,9.65
2019-03-28T20:20:42.181Z,9.55
2019-03-28T20:23:16.131Z,11.86
2019-03-28T20:25:50.101Z,15.63
2019-03-28T20:28:26.667Z,15.76
2019-03-28T20:30:59.410Z,14.29
2019-03-28T20:33:33.699Z,13.29
2019-03-28T20:36:35.580Z,12.64
2019-03-28T20:38:44.838Z,12.19
2019-03-28T20:41:20.653Z,11.85
2019-03-28T20:43:55.808Z,11.58
2019-03-28T20:46:29.995Z,11.30
2019-03-28T20:49:06.579Z,11.06
2019-03-28T20:51:43.826Z,10.84
2019-03-28T20:54:21.409Z,10.65
2019-03-28T20:56:57.954Z,10.48
2019-03-28T20:59:36.020Z,10.33
2019-03-28T21:02:12.477Z,10.14
2019-03-28T21:04:46.577Z,10.05
2019-03-28T21:07:22.406Z,9.92
2019-03-28T21:09:56.172Z,9.80
2019-03-28T21:12:29.921Z,12.35
2019-03-28T21:15:03.756Z,15.87
2019-03-28T21:17:37.788Z,15.83
2019-03-28T21:20:11.848Z,14.42
2019-03-28T21:22:46.127Z,13.40
2019-03-28T21:25:20.745Z,12.77
2019-03-28T21:27:54.776Z,12.33
2019-03-28T21:30:28.611Z,11.96
2019-03-28T21:33:02.539Z,11.68
2019-03-28T21:35:36.260Z,11.43
2019-03-28T21:38:10.529Z,11.19
2019-03-28T21:40:44.436Z,10.98
2019-03-28T21:43:19.196Z,10.78
2019-03-28T21:45:53.000Z,10.57
2019-03-28T21:48:27.123Z,10.41
2019-03-28T21:51:01.092Z,10.26
2019-03-28T21:53:34.925Z,10.09
2019-03-28T21:56:08.660Z,12.19
2019-03-28T21:58:42.445Z,16.04
2019-03-28T22:01:16.528Z,16.35
2019-03-28T22:03:51.730Z,14.87
2019-03-28T22:06:26.429Z,13.83
2019-03-28T22:09:00.242Z,13.15
2019-03-28T22:11:34.576Z,12.70
2019-03-28T22:14:08.393Z,12.35
2019-03-28T22:16:42.091Z,12.08
2019-03-28T22:19:15.966Z,11.81
2019-03-28T22:21:49.703Z,14.23
2019-03-28T22:24:23.562Z,17.87
2019-03-28T22:26:57.198Z,17.75
2019-03-28T22:29:30.909Z,16.21
2019-03-28T22:32:04.522Z,15.15
2019-03-28T22:34:38.305Z,14.43
2019-03-28T22:37:12.572Z,13.88
2019-03-28T22:39:46.242Z,13.46
2019-03-28T22:42:19.885Z,13.14
2019-03-28T22:44:53.545Z,12.82
2019-03-28T22:47:28.473Z,12.53
2019-03-28T22:50:02.195Z,12.26
2019-03-28T22:52:35.894Z,14.62
2019-03-28T22:55:11.170Z,18.35
2019-03-28T22:57:44.993Z,17.85
2019-03-28T23:00:19.828Z,16.32
2019-03-28T23:02:55.134Z,15.19
2019-03-28T23:05:28.792Z,14.49
2019-03-28T23:08:02.473Z,13.98
2019-03-28T23:10:36.110Z,13.54
2019-03-28T23:13:09.751Z,13.22
2019-03-28T23:15:43.420Z,12.89
2019-03-28T23:18:17.044Z,15.23
2019-03-28T23:20:50.630Z,18.90
2019-03-28T23:23:24.294Z,18.38
2019-03-28T23:25:57.987Z,16.81
2019-03-28T23:28:31.756Z,15.73
2019-03-28T23:31:06.498Z,14.97
2019-03-28T23:33:46.091Z,14.42
2019-03-28T23:36:19.718Z,14.00
2019-03-28T23:38:53.494Z,13.63
2019-03-28T23:41:27.234Z,15.21
2019-03-28T23:44:01.882Z,18.73
2019-03-28T23:46:35.919Z,18.05
2019-03-28T23:49:09.686Z,16.62
2019-03-28T23:51:43.281Z,15.56
2019-03-28T23:54:16.887Z,14.86
2019-03-28T23:56:50.500Z,14.33
2019-03-28T23:59:24.083Z,13.87
